Time;durP1;ratioP1;P1;durP2;ratioP2;P2;SDS_P1;SDS_P2;PMS_P1;PMS_P2;Temp;Humidity;BMP_temperature;BMP_pressure;BME280_temperature;BME280_humidity;BME280_pressure;Samples;Min_cycle;Max_cycle;Signal;HPM_P1;HPM_P2
2022/02/17 00:00:12;;;;;;;7.47;2.13;;;29.40;99.90;;;;;;5078206;28;20020;-80
2022/02/17 00:02:48;;;;;;;5.43;2.13;;;29.60;99.90;;;;;;5076298;28;20449;-81
2022/02/17 00:05:15;;;;;;;7.10;2.25;;;29.80;99.90;;;;;;5075560;28;20031;-80
2022/02/17 00:07:43;;;;;;;6.18;1.80;;;30.20;99.90;;;;;;5077642;28;20021;-79
2022/02/17 00:10:10;;;;;;;4.85;1.90;;;30.30;99.90;;;;;;5075968;28;20028;-80
2022/02/17 00:12:37;;;;;;;5.18;1.88;;;30.30;99.90;;;;;;5075365;28;20048;-79
2022/02/17 00:15:06;;;;;;;3.67;1.70;;;30.30;99.90;;;;;;5075902;28;20108;-78
2022/02/17 00:17:33;;;;;;;4.28;1.75;;;30.30;99.90;;;;;;5074905;28;20390;-80
2022/02/17 00:20:01;;;;;;;6.10;1.90;;;30.60;99.90;;;;;;5076265;28;20057;-81
2022/02/17 00:22:28;;;;;;;4.95;1.80;;;30.70;99.90;;;;;;5082307;28;20025;-79
2022/02/17 00:24:55;;;;;;;6.32;2.00;;;30.90;99.90;;;;;;5078322;28;20497;-80
2022/02/17 00:27:23;;;;;;;9.45;2.05;;;30.90;99.90;;;;;;5080602;28;20024;-79
2022/02/17 00:29:50;;;;;;;10.63;2.47;;;31.10;99.90;;;;;;5074242;28;20508;-80
2022/02/17 00:32:18;;;;;;;11.63;2.35;;;30.90;99.90;;;;;;5072800;28;20090;-80
2022/02/17 00:34:45;;;;;;;6.93;2.20;;;30.80;99.90;;;;;;5072839;28;20052;-80
2022/02/17 00:37:12;;;;;;;6.30;2.13;;;31.00;99.90;;;;;;5074399;28;20021;-79
2022/02/17 00:39:40;;;;;;;7.80;2.17;;;30.90;99.90;;;;;;5077132;28;20036;-79
2022/02/17 00:42:08;;;;;;;9.85;2.30;;;31.00;99.90;;;;;;5075418;28;20056;-79
2022/02/17 00:44:35;;;;;;;7.25;2.15;;;31.10;99.90;;;;;;5078678;28;20028;-78
2022/02/17 00:47:03;;;;;;;7.03;2.10;;;30.90;99.90;;;;;;5078882;28;20029;-77
2022/02/17 00:49:30;;;;;;;8.27;2.08;;;31.10;99.90;;;;;;5074629;28;20017;-79
2022/02/17 00:51:58;;;;;;;7.95;2.00;;;31.50;99.90;;;;;;5077452;28;20009;-76
2022/02/17 00:54:26;;;;;;;6.60;2.00;;;31.70;99.90;;;;;;5078199;28;20088;-78
2022/02/17 00:56:54;;;;;;;5.10;1.73;;;31.80;99.90;;;;;;5079155;28;20111;-80
2022/02/17 00:59:21;;;;;;;6.43;2.08;;;31.70;99.90;;;;;;5082163;28;20028;-78
2022/02/17 01:01:48;;;;;;;8.27;2.00;;;32.10;99.90;;;;;;5080262;28;20043;-78
2022/02/17 01:04:17;;;;;;;6.10;1.95;;;32.50;99.90;;;;;;5078781;28;20021;-80
2022/02/17 01:06:45;;;;;;;6.88;1.90;;;32.70;99.90;;;;;;5059710;28;20028;-78
2022/02/17 01:09:14;;;;;;;6.65;2.13;;;32.30;99.90;;;;;;5078901;28;20024;-79
2022/02/17 01:11:42;;;;;;;6.10;2.28;;;32.20;99.90;;;;;;5077056;28;20481;-78
2022/02/17 01:14:10;;;;;;;7.47;2.30;;;32.20;99.90;;;;;;5074545;28;20025;-79
2022/02/17 01:16:38;;;;;;;7.43;1.88;;;32.40;99.90;;;;;;5077752;28;20378;-78
2022/02/17 01:19:05;;;;;;;8.73;2.00;;;32.50;99.90;;;;;;5078734;28;20108;-79
2022/02/17 01:21:33;;;;;;;4.32;1.75;;;32.50;99.90;;;;;;5073498;28;20032;-77
2022/02/17 01:24:01;;;;;;;5.22;1.80;;;32.50;99.90;;;;;;5074585;28;20060;-78
2022/02/17 01:26:28;;;;;;;5.93;2.35;;;32.50;99.90;;;;;;5075662;28;20424;-78
2022/02/17 01:29:37;;;;;;;7.05;2.35;;;32.80;99.90;;;;;;5079415;28;20048;-79
2022/02/17 01:32:05;;;;;;;7.65;2.28;;;32.70;99.90;;;;;;5075017;28;20393;-77
2022/02/17 01:34:32;;;;;;;9.98;2.55;;;32.90;99.90;;;;;;5074918;28;20481;-79
2022/02/17 01:37:00;;;;;;;9.05;2.25;;;32.60;99.90;;;;;;5072740;28;20050;-77
2022/02/17 01:39:27;;;;;;;7.20;2.10;;;32.50;99.90;;;;;;5072025;28;20411;-77
2022/02/17 01:41:55;;;;;;;7.60;2.00;;;32.50;99.90;;;;;;5072722;28;20028;-77
2022/02/17 01:44:23;;;;;;;9.98;2.63;;;32.50;99.90;;;;;;5073258;28;20122;-78
2022/02/17 01:46:50;;;;;;;7.05;2.13;;;32.50;99.90;;;;;;5072857;28;20016;-76
2022/02/17 01:49:17;;;;;;;6.45;1.90;;;32.50;99.90;;;;;;5071917;28;20025;-77
2022/02/17 01:51:45;;;;;;;9.10;2.13;;;32.50;99.90;;;;;;5075245;28;20164;-78
2022/02/17 01:54:12;;;;;;;5.22;1.70;;;32.60;99.90;;;;;;5075395;28;20019;-77
2022/02/17 01:56:42;;;;;;;10.40;2.10;;;32.70;99.90;;;;;;5074332;28;20394;-78
2022/02/17 01:59:11;;;;;;;9.80;2.83;;;32.50;99.90;;;;;;5077163;28;20069;-78
2022/02/17 02:01:39;;;;;;;7.30;2.07;;;32.40;99.90;;;;;;5078963;28;20031;-78
2022/02/17 02:04:07;;;;;;;11.50;2.28;;;32.00;99.90;;;;;;5077167;28;20017;-75
2022/02/17 02:06:34;;;;;;;7.80;2.50;;;31.30;99.90;;;;;;5074504;28;20054;-76
2022/02/17 02:09:03;;;;;;;5.97;2.30;;;31.50;99.90;;;;;;5075114;28;20025;-77
2022/02/17 02:11:31;;;;;;;8.40;2.20;;;31.60;99.90;;;;;;5076703;28;20335;-77
2022/02/17 02:13:58;;;;;;;6.55;2.13;;;31.60;99.90;;;;;;5076628;28;20512;-77
2022/02/17 02:16:26;;;;;;;8.80;2.58;;;31.60;99.90;;;;;;5075399;28;20543;-78
2022/02/17 02:18:53;;;;;;;7.72;2.15;;;32.10;99.90;;;;;;5075264;28;20119;-79
2022/02/17 02:21:23;;;;;;;7.90;2.05;;;31.80;99.90;;;;;;5059143;28;20029;-78
2022/02/17 02:23:54;;;;;;;7.93;2.40;;;32.00;99.90;;;;;;5075570;28;20045;-79
2022/02/17 02:26:21;;;;;;;7.68;2.28;;;32.10;99.90;;;;;;5075548;28;20016;-79
2022/02/17 02:28:49;;;;;;;9.40;2.40;;;32.10;99.90;;;;;;5076657;28;20055;-79
2022/02/17 02:31:17;;;;;;;9.10;2.28;;;32.30;99.90;;;;;;5076045;28;20027;-78
2022/02/17 02:33:45;;;;;;;7.47;2.17;;;32.70;99.90;;;;;;5077045;28;20029;-78
2022/02/17 02:36:12;;;;;;;6.75;1.98;;;32.70;99.90;;;;;;5075931;28;20016;-77
2022/02/17 02:38:40;;;;;;;8.43;2.22;;;33.10;99.90;;;;;;5074799;28;20031;-78
2022/02/17 02:41:08;;;;;;;6.40;2.17;;;33.10;99.90;;;;;;5076705;28;20025;-78
2022/02/17 02:43:36;;;;;;;9.30;2.83;;;32.80;99.90;;;;;;5077022;28;20039;-78
2022/02/17 02:46:05;;;;;;;5.70;2.45;;;32.40;99.90;;;;;;5075184;28;20021;-77
2022/02/17 02:48:32;;;;;;;9.18;2.58;;;32.20;99.90;;;;;;5075992;28;20028;-79
2022/02/17 02:50:59;;;;;;;9.88;2.85;;;31.90;99.90;;;;;;5076835;28;20100;-79
2022/02/17 02:53:27;;;;;;;7.13;2.42;;;32.60;99.90;;;;;;5076577;28;20017;-78
2022/02/17 02:55:54;;;;;;;8.45;2.15;;;32.70;99.90;;;;;;5074828;28;20024;-81
2022/02/17 02:58:22;;;;;;;8.32;2.42;;;32.10;99.90;;;;;;5075815;28;20104;-76
2022/02/17 03:00:50;;;;;;;7.38;2.20;;;31.70;99.90;;;;;;5074516;28;20063;-76
2022/02/17 03:03:18;;;;;;;9.70;2.80;;;31.40;99.90;;;;;;5075489;28;20028;-77
2022/02/17 03:05:46;;;;;;;10.95;2.50;;;31.30;99.90;;;;;;5073909;28;20560;-77
2022/02/17 03:08:14;;;;;;;6.68;1.98;;;31.70;99.90;;;;;;5075357;28;20047;-77
2022/02/17 03:10:42;;;;;;;8.80;2.47;;;31.60;99.90;;;;;;5074245;28;20447;-77
2022/02/17 03:13:09;;;;;;;8.90;2.35;;;31.40;99.90;;;;;;5075557;28;20017;-79
2022/02/17 03:15:37;;;;;;;5.80;2.00;;;31.40;99.90;;;;;;5074306;28;20477;-79
2022/02/17 03:18:05;;;;;;;8.23;2.15;;;31.60;99.90;;;;;;5073430;28;20033;-79
2022/02/17 03:20:33;;;;;;;6.70;2.30;;;31.60;99.90;;;;;;5073542;28;20474;-80
2022/02/17 03:23:00;;;;;;;10.07;2.22;;;31.40;99.90;;;;;;5073207;28;20382;-80
2022/02/17 03:25:27;;;;;;;8.48;2.20;;;31.40;99.90;;;;;;5073055;28;20409;-78
2022/02/17 03:27:55;;;;;;;5.40;2.15;;;31.10;99.90;;;;;;5074547;28;20110;-78
2022/02/17 03:30:22;;;;;;;9.40;2.17;;;31.30;99.90;;;;;;5074730;28;20012;-79
2022/02/17 03:32:53;;;;;;;9.13;2.08;;;31.50;99.90;;;;;;5073918;28;20055;-79
2022/02/17 03:35:20;;;;;;;6.78;2.47;;;31.70;99.90;;;;;;5074322;28;20416;-79
2022/02/17 03:37:47;;;;;;;6.53;2.50;;;31.60;99.90;;;;;;5072794;28;20123;-78
2022/02/17 03:40:15;;;;;;;8.02;2.03;;;31.60;99.90;;;;;;5074350;28;20029;-78
2022/02/17 03:42:43;;;;;;;6.05;2.00;;;31.60;99.90;;;;;;5072578;28;20037;-78
2022/02/17 03:45:11;;;;;;;7.13;2.65;;;31.60;99.90;;;;;;5072694;28;20496;-77
2022/02/17 03:47:39;;;;;;;8.23;2.50;;;32.00;99.90;;;;;;5073685;28;20020;-79
2022/02/17 03:50:08;;;;;;;10.57;2.60;;;32.10;99.90;;;;;;5072620;28;20023;-78
2022/02/17 03:52:37;;;;;;;10.02;2.60;;;32.10;99.90;;;;;;5072691;28;20032;-79
2022/02/17 03:55:05;;;;;;;10.88;2.40;;;32.00;99.90;;;;;;5074221;28;20105;-81
2022/02/17 03:57:32;;;;;;;8.15;2.70;;;32.30;99.90;;;;;;5074487;28;20078;-79
2022/02/17 04:00:00;;;;;;;6.80;2.65;;;32.70;99.90;;;;;;5073383;28;20029;-78
2022/02/17 04:02:27;;;;;;;8.48;2.53;;;32.80;99.90;;;;;;5073886;28;20501;-79
2022/02/17 04:04:54;;;;;;;9.38;2.70;;;32.70;99.90;;;;;;5072984;28;20081;-78
2022/02/17 04:07:22;;;;;;;6.28;1.92;;;33.00;99.90;;;;;;5077948;28;20021;-80
2022/02/17 04:09:49;;;;;;;8.15;2.72;;;32.70;99.90;;;;;;5073880;28;20066;-81
2022/02/17 04:12:16;;;;;;;8.68;2.65;;;32.50;99.90;;;;;;5079939;28;20024;-81
2022/02/17 04:14:44;;;;;;;5.78;2.17;;;32.80;99.90;;;;;;5079749;28;20025;-78
2022/02/17 04:17:11;;;;;;;10.07;2.90;;;32.90;99.90;;;;;;5073305;28;20032;-79
2022/02/17 04:19:38;;;;;;;10.40;2.55;;;32.40;99.90;;;;;;5073854;28;20543;-78
2022/02/17 04:22:07;;;;;;;9.18;2.75;;;32.20;99.90;;;;;;5073095;28;20428;-78
2022/02/17 04:24:35;;;;;;;4.65;2.22;;;32.30;99.90;;;;;;5072993;28;20086;-78
2022/02/17 04:27:02;;;;;;;10.40;2.70;;;32.60;99.90;;;;;;5076265;28;20020;-77
2022/02/17 04:29:30;;;;;;;8.40;2.20;;;33.00;99.90;;;;;;5076025;28;20055;-80
2022/02/17 04:31:57;;;;;;;8.70;2.30;;;32.50;99.90;;;;;;5077415;28;20481;-77
2022/02/17 04:34:25;;;;;;;11.23;2.17;;;32.50;99.90;;;;;;5075071;28;20028;-76
2022/02/17 04:36:52;;;;;;;8.40;2.33;;;32.90;99.90;;;;;;5073304;28;20035;-79
2022/02/17 04:39:20;;;;;;;5.97;1.95;;;32.90;99.90;;;;;;5073695;28;20541;-77
2022/02/17 04:44:32;;;;;;;7.18;2.25;;;32.60;99.90;;;;;;5073381;28;20147;-75
2022/02/17 04:47:00;;;;;;;5.68;2.03;;;32.80;99.90;;;;;;5071782;28;20121;-78
2022/02/17 04:49:27;;;;;;;9.93;2.45;;;33.10;99.90;;;;;;5073669;28;20017;-78
2022/02/17 04:51:55;;;;;;;6.93;2.13;;;32.80;99.90;;;;;;5072431;28;20028;-79
2022/02/17 04:54:22;;;;;;;7.20;1.95;;;32.70;99.90;;;;;;5071903;28;20033;-78
2022/02/17 04:56:49;;;;;;;5.60;2.33;;;32.70;99.90;;;;;;5073142;28;20397;-77
2022/02/17 04:59:17;;;;;;;7.95;1.98;;;32.60;99.90;;;;;;5073135;28;20035;-78
2022/02/17 05:01:44;;;;;;;6.00;2.22;;;32.80;99.90;;;;;;5072932;28;20021;-78
2022/02/17 05:04:11;;;;;;;8.27;2.22;;;32.90;99.90;;;;;;5073151;28;20031;-79
2022/02/17 05:06:39;;;;;;;5.63;2.45;;;32.80;99.90;;;;;;5072056;28;20115;-79
2022/02/17 05:09:06;;;;;;;8.52;2.40;;;32.70;99.90;;;;;;5072167;28;20131;-79
2022/02/17 05:11:33;;;;;;;8.90;2.17;;;32.70;99.90;;;;;;5071876;28;20032;-80
2022/02/17 05:14:01;;;;;;;7.05;2.10;;;32.80;99.90;;;;;;5072983;28;20051;-78
2022/02/17 05:16:28;;;;;;;6.78;2.10;;;32.70;99.90;;;;;;5071676;28;20028;-77
2022/02/17 05:18:56;;;;;;;7.47;1.90;;;32.70;99.90;;;;;;5073288;28;20103;-79
2022/02/17 05:21:23;;;;;;;7.18;2.13;;;32.90;99.90;;;;;;5072782;28;20020;-79
2022/02/17 05:23:51;;;;;;;7.15;1.92;;;32.50;99.90;;;;;;5071798;28;20045;-80
2022/02/17 05:26:18;;;;;;;7.95;2.53;;;32.30;99.90;;;;;;5071536;28;20020;-75
2022/02/17 05:28:46;;;;;;;11.15;2.72;;;32.40;99.90;;;;;;5072733;28;20029;-79
2022/02/17 05:31:13;;;;;;;7.85;2.78;;;32.60;99.90;;;;;;5072672;28;20474;-79
2022/02/17 05:33:41;;;;;;;7.07;2.10;;;32.70;99.90;;;;;;5075032;28;20441;-81
2022/02/17 05:36:08;;;;;;;8.75;2.42;;;32.50;99.90;;;;;;5074907;28;20106;-78
2022/02/17 05:38:35;;;;;;;9.00;2.67;;;32.60;99.90;;;;;;5076642;28;20040;-79
2022/02/17 05:41:03;;;;;;;10.07;2.42;;;32.50;99.90;;;;;;5074964;28;20024;-77
2022/02/17 05:43:30;;;;;;;7.10;2.00;;;32.50;99.90;;;;;;5076488;28;20016;-79
2022/02/17 05:46:00;;;;;;;7.82;2.47;;;32.40;99.90;;;;;;5076189;28;20040;-76
2022/02/17 05:48:28;;;;;;;7.45;2.17;;;32.40;99.90;;;;;;5074942;28;20408;-78
2022/02/17 05:50:55;;;;;;;8.98;2.50;;;32.60;99.90;;;;;;5076024;28;20546;-76
2022/02/17 05:53:22;;;;;;;7.40;2.08;;;32.30;99.90;;;;;;5074818;28;20078;-77
2022/02/17 05:55:50;;;;;;;10.02;2.30;;;32.10;99.90;;;;;;5075901;28;20534;-76
2022/02/17 05:58:17;;;;;;;6.93;2.10;;;32.10;99.90;;;;;;5075975;28;20020;-76
2022/02/17 06:00:44;;;;;;;8.43;2.17;;;32.20;99.90;;;;;;5075734;28;20485;-76
2022/02/17 06:03:12;;;;;;;9.52;2.05;;;32.50;99.90;;;;;;5074508;28;20025;-77
2022/02/17 06:05:39;;;;;;;8.40;2.30;;;32.70;99.90;;;;;;5074369;28;20078;-78
2022/02/17 06:08:07;;;;;;;9.82;2.63;;;32.30;99.90;;;;;;5075810;28;20016;-76
2022/02/17 06:10:37;;;;;;;8.77;2.38;;;32.00;99.90;;;;;;5075908;28;20012;-77
2022/02/17 06:13:05;;;;;;;7.50;2.65;;;32.00;99.90;;;;;;5075471;28;20024;-77
2022/02/17 06:15:32;;;;;;;10.82;2.20;;;31.70;99.90;;;;;;5075575;28;20099;-76
2022/02/17 06:18:00;;;;;;;9.57;2.55;;;31.20;99.90;;;;;;5074346;28;20035;-77
2022/02/17 06:20:27;;;;;;;8.90;3.00;;;30.50;99.90;;;;;;5074318;28;20021;-77
2022/02/17 06:22:54;;;;;;;7.13;1.88;;;29.90;99.90;;;;;;5075211;28;20554;-76
2022/02/17 06:25:22;;;;;;;8.63;2.42;;;29.80;99.90;;;;;;5075312;28;20037;-78
2022/02/17 06:27:50;;;;;;;10.02;2.03;;;29.50;99.90;;;;;;5074011;28;20025;-77
2022/02/17 06:30:20;;;;;;;10.43;2.50;;;29.10;99.90;;;;;;5074350;28;20017;-80
2022/02/17 06:32:53;;;;;;;9.43;2.42;;;29.00;99.90;;;;;;5075252;28;20036;-77
2022/02/17 06:35:30;;;;;;;8.82;2.60;;;28.90;99.90;;;;;;5073910;28;20040;-77
2022/02/17 06:37:57;;;;;;;9.65;2.30;;;28.70;99.90;;;;;;5073941;28;20021;-78
2022/02/17 06:40:26;;;;;;;8.30;2.08;;;28.40;99.90;;;;;;5075161;28;20029;-77
2022/02/17 06:42:54;;;;;;;9.82;2.90;;;28.20;99.90;;;;;;5073873;28;20451;-77
2022/02/17 06:45:21;;;;;;;8.65;2.58;;;28.00;99.90;;;;;;5072907;28;20445;-77
2022/02/17 06:47:49;;;;;;;10.23;2.80;;;27.90;99.90;;;;;;5075116;28;20021;-77
2022/02/17 06:50:17;;;;;;;8.90;2.80;;;27.70;99.90;;;;;;5073835;28;20028;-78
2022/02/17 06:52:45;;;;;;;11.18;2.40;;;27.40;99.90;;;;;;5073589;28;20119;-76
2022/02/17 06:55:15;;;;;;;9.48;2.20;;;27.30;99.90;;;;;;5075110;28;20024;-77
2022/02/17 06:57:43;;;;;;;8.70;2.00;;;27.30;99.90;;;;;;5075049;28;20499;-77
2022/02/17 07:00:11;;;;;;;11.43;2.50;;;27.20;99.90;;;;;;5073662;28;20024;-77
2022/02/17 07:02:40;;;;;;;11.45;2.90;;;27.00;99.90;;;;;;5074703;28;20560;-77
2022/02/17 07:05:08;;;;;;;10.10;2.25;;;27.00;99.90;;;;;;5073394;28;20035;-74
2022/02/17 07:07:36;;;;;;;9.63;2.80;;;26.90;99.90;;;;;;5073355;28;20426;-76
2022/02/17 07:10:07;;;;;;;9.45;3.22;;;26.90;99.90;;;;;;5073637;28;20027;-77
2022/02/17 07:12:34;;;;;;;9.02;2.78;;;26.70;99.90;;;;;;5073443;28;20052;-78
2022/02/17 07:15:02;;;;;;;11.48;2.90;;;26.60;99.90;;;;;;5073223;28;20506;-76
2022/02/17 07:17:31;;;;;;;9.60;2.88;;;26.50;99.90;;;;;;5072939;28;20035;-77
2022/02/17 07:19:58;;;;;;;10.82;2.50;;;26.40;99.90;;;;;;5073128;28;20508;-77
2022/02/17 07:22:25;;;;;;;12.43;2.58;;;26.40;99.90;;;;;;5072905;28;20020;-76
2022/02/17 07:24:53;;;;;;;9.93;2.40;;;26.40;99.90;;;;;;5072858;28;20048;-77
2022/02/17 07:27:20;;;;;;;11.95;2.63;;;26.40;99.90;;;;;;5073022;28;20485;-77
2022/02/17 07:29:47;;;;;;;9.82;2.50;;;26.40;99.90;;;;;;5073059;28;20363;-76
2022/02/17 07:32:15;;;;;;;8.85;2.28;;;26.30;99.90;;;;;;5072882;28;20086;-76
2022/02/17 07:34:43;;;;;;;10.10;2.30;;;26.40;99.90;;;;;;5072893;28;20024;-76
2022/02/17 07:37:11;;;;;;;8.73;2.53;;;26.50;99.90;;;;;;5074221;28;20028;-76
2022/02/17 07:39:39;;;;;;;10.25;2.95;;;26.60;99.90;;;;;;5074064;28;20028;-76
2022/02/17 07:42:06;;;;;;;9.43;2.95;;;26.70;99.90;;;;;;5072566;28;20029;-77
2022/02/17 07:44:34;;;;;;;8.88;2.45;;;26.50;99.90;;;;;;5072564;28;20017;-75
2022/02/17 07:47:01;;;;;;;6.63;1.83;;;26.40;99.90;;;;;;5073782;28;20448;-76
2022/02/17 07:49:28;;;;;;;9.38;2.50;;;26.20;99.90;;;;;;5073671;28;20013;-75
2022/02/17 07:51:56;;;;;;;3.28;1.48;;;26.10;99.90;;;;;;5073696;28;20017;-75
2022/02/17 07:54:25;;;;;;;7.30;1.60;;;25.60;99.90;;;;;;5073629;28;20033;-76
2022/02/17 07:56:53;;;;;;;6.63;1.52;;;25.10;99.90;;;;;;5072184;28;20501;-76
2022/02/17 07:59:20;;;;;;;3.75;1.65;;;24.90;99.90;;;;;;5073529;28;20040;-74
2022/02/17 08:01:48;;;;;;;8.80;2.15;;;24.60;99.90;;;;;;5073477;28;20032;-76
2022/02/17 08:04:15;;;;;;;5.35;2.30;;;24.40;99.90;;;;;;5072389;28;20025;-76
2022/02/17 08:06:43;;;;;;;5.38;1.88;;;24.40;99.90;;;;;;5072532;28;20031;-78
2022/02/17 08:09:11;;;;;;;2.42;0.80;;;24.20;99.90;;;;;;5071232;28;20036;-78
2022/02/17 08:11:38;;;;;;;3.63;1.23;;;23.90;99.90;;;;;;5072631;28;20032;-78
2022/02/17 08:14:06;;;;;;;3.78;1.45;;;23.60;99.90;;;;;;5071050;28;20056;-79
2022/02/17 08:16:33;;;;;;;5.07;1.00;;;23.60;99.90;;;;;;5072503;28;20055;-79
2022/02/17 08:19:02;;;;;;;4.32;1.13;;;23.50;99.90;;;;;;5071108;28;20490;-80
2022/02/17 08:21:30;;;;;;;3.25;0.90;;;23.60;99.90;;;;;;5072460;28;20024;-82
2022/02/17 08:23:57;;;;;;;3.78;0.93;;;23.70;99.90;;;;;;5070573;28;20048;-79
2022/02/17 08:26:24;;;;;;;3.55;0.80;;;23.70;99.90;;;;;;5070926;28;20025;-77
2022/02/17 08:28:57;;;;;;;2.35;0.60;;;23.80;99.90;;;;;;5070868;28;20394;-77
2022/02/17 08:31:26;;;;;;;1.52;0.60;;;24.00;99.90;;;;;;5072410;28;20392;-77
2022/02/17 08:33:53;;;;;;;1.42;0.43;;;24.20;99.90;;;;;;5072285;28;20077;-77
2022/02/17 08:36:21;;;;;;;2.08;0.40;;;24.50;99.90;;;;;;5072296;28;20095;-76
2022/02/17 08:38:49;;;;;;;1.83;0.47;;;24.50;99.90;;;;;;5072270;28;20023;-79
2022/02/17 08:41:16;;;;;;;2.42;0.68;;;24.60;99.90;;;;;;5072130;28;20474;-76
2022/02/17 08:43:44;;;;;;;0.85;0.30;;;24.70;99.90;;;;;;5072155;28;20013;-76
2022/02/17 08:46:11;;;;;;;1.05;0.30;;;24.70;99.90;;;;;;5072131;28;20087;-76
2022/02/17 08:48:39;;;;;;;1.70;0.30;;;24.70;99.90;;;;;;5072102;28;20355;-76
2022/02/17 08:51:06;;;;;;;2.00;0.40;;;24.70;99.90;;;;;;5054410;28;20466;-77
2022/02/17 08:53:34;;;;;;;0.90;0.40;;;24.80;99.90;;;;;;5070634;28;20029;-77
2022/02/17 08:56:01;;;;;;;1.10;0.30;;;24.80;99.90;;;;;;5071745;28;20094;-79
2022/02/17 08:58:29;;;;;;;1.48;0.40;;;24.90;99.90;;;;;;5072124;28;20045;-76
2022/02/17 09:00:58;;;;;;;0.73;0.40;;;25.00;99.90;;;;;;5072172;28;20071;-76
2022/02/17 09:03:25;;;;;;;0.70;0.30;;;25.00;99.90;;;;;;5071942;28;20477;-76
2022/02/17 09:05:53;;;;;;;1.65;0.35;;;25.00;99.90;;;;;;5071898;28;20484;-77
2022/02/17 09:08:20;;;;;;;0.47;0.30;;;24.90;99.90;;;;;;5073420;28;20044;-76
2022/02/17 09:10:47;;;;;;;1.30;0.35;;;24.90;99.90;;;;;;5074677;28;20020;-76
2022/02/17 09:13:15;;;;;;;2.00;0.40;;;24.90;99.90;;;;;;5074484;28;20024;-76
2022/02/17 09:15:43;;;;;;;3.42;0.82;;;24.80;99.90;;;;;;5074596;28;20035;-77
2022/02/17 09:18:10;;;;;;;2.95;0.93;;;24.90;99.90;;;;;;5075807;28;20024;-77
2022/02/17 09:20:37;;;;;;;2.35;0.80;;;25.00;99.90;;;;;;5075882;28;20056;-80
2022/02/17 09:23:06;;;;;;;2.85;1.10;;;25.00;99.90;;;;;;5074471;28;20043;-78
2022/02/17 09:25:36;;;;;;;1.60;0.90;;;25.00;99.90;;;;;;5075682;28;20075;-77
2022/02/17 09:28:05;;;;;;;1.55;0.70;;;25.00;99.90;;;;;;5074239;28;20436;-77
2022/02/17 09:30:32;;;;;;;3.58;1.33;;;25.00;99.90;;;;;;5075799;28;20027;-76
2022/02/17 09:33:00;;;;;;;1.95;1.10;;;24.90;99.90;;;;;;5076014;28;20020;-76
2022/02/17 09:35:27;;;;;;;4.88;1.70;;;24.90;99.90;;;;;;5074186;28;20393;-77
2022/02/17 09:37:54;;;;;;;3.67;1.63;;;25.00;99.90;;;;;;5075428;28;20074;-77
2022/02/17 09:40:23;;;;;;;2.33;1.30;;;24.90;99.90;;;;;;5075375;28;20085;-77
2022/02/17 09:42:50;;;;;;;3.97;1.75;;;24.80;99.90;;;;;;5075098;28;20029;-77
2022/02/17 09:45:20;;;;;;;5.00;1.85;;;24.80;99.90;;;;;;5073664;28;20434;-77
2022/02/17 09:47:47;;;;;;;4.03;1.75;;;24.80;99.90;;;;;;5073783;28;20120;-78
2022/02/17 09:50:16;;;;;;;3.30;1.75;;;24.70;99.90;;;;;;5074170;28;20090;-77
2022/02/17 09:52:45;;;;;;;4.20;1.80;;;24.60;99.90;;;;;;5075117;28;20032;-76
2022/02/17 09:55:14;;;;;;;4.90;2.00;;;24.60;99.90;;;;;;5075071;28;20497;-76
2022/02/17 09:57:43;;;;;;;2.40;1.13;;;24.50;99.90;;;;;;5075033;28;20024;-76
2022/02/17 10:00:12;;;;;;;3.30;1.70;;;24.40;99.90;;;;;;5073795;28;20116;-77
2022/02/17 10:02:40;;;;;;;4.50;1.50;;;24.40;99.90;;;;;;5075163;28;20108;-76
2022/02/17 10:05:11;;;;;;;3.47;1.42;;;24.40;99.90;;;;;;5073325;28;20512;-76
2022/02/17 10:07:43;;;;;;;4.22;1.75;;;24.40;99.90;;;;;;5073503;28;20024;-75
2022/02/17 10:10:23;;;;;;;3.17;1.65;;;24.40;99.90;;;;;;5074807;28;20044;-76
2022/02/17 10:12:51;;;;;;;4.35;1.50;;;24.40;99.90;;;;;;5073386;28;20101;-76
2022/02/17 10:15:30;;;;;;;3.55;1.52;;;24.40;99.90;;;;;;5073295;28;20040;-75
2022/02/17 10:18:04;;;;;;;3.30;1.70;;;24.30;99.90;;;;;;5074357;28;20029;-76
2022/02/17 10:20:55;;;;;;;4.25;1.45;;;24.20;99.90;;;;;;5075825;28;20100;-76
2022/02/17 10:23:24;;;;;;;2.88;1.35;;;24.10;99.90;;;;;;5074016;28;20024;-75
2022/02/17 10:26:03;;;;;;;3.20;1.50;;;24.00;99.90;;;;;;5074241;28;20028;-76
2022/02/17 10:28:34;;;;;;;3.65;1.67;;;23.90;99.90;;;;;;5074105;28;20066;-76
2022/02/17 10:31:03;;;;;;;3.53;1.30;;;23.90;99.90;;;;;;5075404;28;20412;-75
2022/02/17 10:33:45;;;;;;;2.33;1.20;;;23.90;99.90;;;;;;5073745;28;20031;-75
2022/02/17 10:36:16;;;;;;;2.40;1.10;;;23.80;99.90;;;;;;5075439;28;20032;-75
2022/02/17 10:38:43;;;;;;;3.70;1.10;;;23.80;99.90;;;;;;5075316;28;20504;-75
2022/02/17 10:41:10;;;;;;;2.25;1.00;;;23.90;99.90;;;;;;5073916;28;20032;-76
2022/02/17 10:43:38;;;;;;;2.40;1.25;;;23.90;99.90;;;;;;5074966;28;20016;-75
2022/02/17 10:46:10;;;;;;;2.33;1.10;;;23.90;99.90;;;;;;5074404;28;20028;-74
2022/02/17 10:48:44;;;;;;;4.10;1.45;;;23.90;99.90;;;;;;5075111;28;20073;-74
2022/02/17 10:51:19;;;;;;;3.78;1.67;;;23.80;99.90;;;;;;5074917;28;20028;-73
2022/02/17 10:53:58;;;;;;;4.40;1.60;;;23.80;99.90;;;;;;5074822;28;20036;-75
2022/02/17 10:56:30;;;;;;;2.90;1.30;;;23.90;99.90;;;;;;5073425;28;20495;-75
2022/02/17 10:59:01;;;;;;;3.22;1.38;;;23.90;99.90;;;;;;5073595;28;20033;-75
2022/02/17 11:01:29;;;;;;;3.70;1.50;;;23.90;99.90;;;;;;5056955;28;20039;-75
2022/02/17 11:03:57;;;;;;;3.20;1.25;;;23.90;99.90;;;;;;5073282;28;20021;-75
2022/02/17 11:06:24;;;;;;;2.88;1.02;;;24.00;99.90;;;;;;5074533;28;20388;-75
2022/02/17 11:08:53;;;;;;;5.82;1.42;;;24.10;99.90;;;;;;5074524;28;20039;-75
2022/02/17 11:11:22;;;;;;;4.03;1.58;;;24.10;99.90;;;;;;5074577;28;20017;-74
2022/02/17 11:13:51;;;;;;;9.18;2.95;;;24.10;99.90;;;;;;5074441;28;20016;-74
2022/02/17 11:16:27;;;;;;;15.02;3.50;;;24.10;99.90;;;;;;5074491;28;20029;-74
2022/02/17 11:18:55;;;;;;;12.55;3.83;;;24.10;99.90;;;;;;5073022;28;20106;-74
2022/02/17 11:21:23;;;;;;;15.40;4.18;;;24.10;99.90;;;;;;5072823;28;20052;-74
2022/02/17 11:23:56;;;;;;;14.52;3.90;;;24.10;99.90;;;;;;5072670;28;20490;-73
2022/02/17 11:26:31;;;;;;;17.10;4.50;;;24.00;99.90;;;;;;5074112;28;20071;-75
2022/02/17 11:29:38;;;;;;;15.95;4.53;;;24.00;99.90;;;;;;5074219;28;20052;-75
2022/02/17 11:32:08;;;;;;;19.42;5.03;;;24.00;99.90;;;;;;5073774;28;20031;-75
2022/02/17 11:34:43;;;;;;;19.92;4.93;;;23.90;99.90;;;;;;5072752;28;20089;-75
2022/02/17 11:37:30;;;;;;;18.52;5.25;;;23.90;99.90;;;;;;5074236;28;20021;-74
2022/02/17 11:40:17;;;;;;;17.42;5.03;;;23.80;99.90;;;;;;5072759;28;20052;-74
2022/02/17 11:42:47;;;;;;;18.25;5.32;;;23.80;99.90;;;;;;5072708;28;20024;-74
2022/02/17 11:45:21;;;;;;;;;;;23.80;99.90;;;;;;5074424;28;20027;-73
2022/02/17 11:48:10;;;;;;;15.95;5.00;;;23.80;99.90;;;;;;5073934;28;19950;-74
2022/02/17 11:50:49;;;;;;;17.15;4.70;;;23.80;99.90;;;;;;5072553;28;20024;-74
2022/02/17 11:53:25;;;;;;;17.33;5.20;;;23.70;99.90;;;;;;5073877;28;20086;-74
2022/02/17 11:55:55;;;;;;;19.08;5.80;;;23.70;99.90;;;;;;5072640;28;20025;-74
2022/02/17 11:58:52;;;;;;;25.98;6.53;;;23.60;99.90;;;;;;5073689;28;20107;-74
2022/02/17 12:01:24;;;;;;;18.08;5.97;;;23.50;99.90;;;;;;5073194;28;20035;-74
2022/02/17 12:04:17;;;;;;;22.88;6.30;;;23.50;99.90;;;;;;5073581;28;20098;-74
2022/02/17 12:07:05;;;;;;;20.52;5.82;;;23.50;99.90;;;;;;5073597;28;20021;-75
2022/02/17 12:09:47;;;;;;;20.55;6.43;;;23.40;99.90;;;;;;5073580;28;20017;-74
2022/02/17 12:12:43;;;;;;;20.20;6.32;;;23.40;99.90;;;;;;5072096;28;20055;-75
2022/02/17 12:15:14;;;;;;;19.50;6.20;;;23.30;99.90;;;;;;5072919;28;20146;-74
2022/02/17 12:17:43;;;;;;;18.73;6.93;;;23.30;99.90;;;;;;5073441;28;20052;-75
2022/02/17 12:20:18;;;;;;;22.57;6.50;;;23.30;99.90;;;;;;5071987;28;20443;-75
2022/02/17 12:23:07;;;;;;;21.30;7.13;;;23.30;99.90;;;;;;5073172;28;20288;-74
2022/02/17 12:25:37;;;;;;;19.63;7.15;;;23.30;99.90;;;;;;5073101;28;20498;-74
2022/02/17 12:28:06;;;;;;;23.00;7.55;;;23.30;99.90;;;;;;5072104;28;20020;-74
2022/02/17 12:30:39;;;;;;;23.38;6.93;;;23.30;99.90;;;;;;5073129;28;20032;-74
2022/02/17 12:33:24;;;;;;;23.75;7.38;;;23.20;99.90;;;;;;5073199;28;20021;-74
2022/02/17 12:35:57;;;;;;;22.45;7.13;;;23.10;99.90;;;;;;5073257;28;20059;-74
2022/02/17 12:38:27;;;;;;;21.92;6.90;;;23.10;99.90;;;;;;5071921;28;20120;-74
2022/02/17 12:40:55;;;;;;;18.10;6.57;;;23.10;99.90;;;;;;5073013;28;20115;-74
2022/02/17 12:43:34;;;;;;;28.50;8.90;;;23.00;99.90;;;;;;5070849;28;20081;-75
2022/02/17 12:46:03;;;;;;;25.38;8.18;;;23.00;99.90;;;;;;5071880;28;20478;-74
2022/02/17 12:48:33;;;;;;;26.07;8.07;;;22.90;99.90;;;;;;5073078;28;20013;-74
2022/02/17 12:51:00;;;;;;;22.33;8.07;;;22.90;99.90;;;;;;5071795;28;20017;-75
2022/02/17 12:53:28;;;;;;;22.55;7.50;;;22.80;99.90;;;;;;5072939;28;20154;-74
2022/02/17 12:55:57;;;;;;;30.58;8.70;;;22.80;99.90;;;;;;5072970;28;20405;-73
2022/02/17 12:58:33;;;;;;;26.83;8.52;;;22.80;99.90;;;;;;5073019;28;20036;-74